createdAt,value
2018-05-08T00:01:17.636Z,14.43
2018-05-08T00:03:45.144Z,14.73
2018-05-08T00:06:13.803Z,14.87
2018-05-08T00:08:41.550Z,14.40
2018-05-08T00:11:11.168Z,12.43
2018-05-08T00:13:38.688Z,16.53
2018-05-08T00:16:06.399Z,19.90
2018-05-08T00:18:37.220Z,13.67
2018-05-08T00:21:08.086Z,17.67
2018-05-08T00:23:37.884Z,14.60
2018-05-08T00:26:05.427Z,16.23
2018-05-08T00:28:35.065Z,16.20
2018-05-08T00:31:04.678Z,17.40
2018-05-08T00:33:41.989Z,15.70
2018-05-08T00:36:10.708Z,14.83
2018-05-08T00:38:38.396Z,21.87
2018-05-08T00:41:08.002Z,17.73
2018-05-08T00:43:35.538Z,18.40
2018-05-08T00:46:03.283Z,17.73
2018-05-08T00:48:31.890Z,15.67
2018-05-08T00:51:10.427Z,16.73
2018-05-08T00:53:39.434Z,20.70
2018-05-08T00:56:08.131Z,16.70
2018-05-08T00:58:36.900Z,18.53
2018-05-08T01:01:04.598Z,14.73
2018-05-08T01:03:32.102Z,17.00
2018-05-08T01:05:59.792Z,13.43
2018-05-08T01:08:27.326Z,14.57
2018-05-08T01:10:58.998Z,13.83
2018-05-08T01:13:26.501Z,16.27
2018-05-08T01:15:54.249Z,22.83
2018-05-08T01:18:22.920Z,18.37
2018-05-08T01:20:50.406Z,16.40
2018-05-08T01:23:17.931Z,19.07
2018-05-08T01:25:48.650Z,17.87
2018-05-08T01:28:16.154Z,17.17
2018-05-08T01:30:48.501Z,17.40
2018-05-08T01:33:19.326Z,15.93
2018-05-08T01:35:46.862Z,16.07
2018-05-08T01:38:20.982Z,14.77
2018-05-08T01:40:50.644Z,20.10
2018-05-08T01:43:24.166Z,15.60
2018-05-08T01:45:51.706Z,17.23
2018-05-08T01:48:31.154Z,16.97
2018-05-08T01:50:58.912Z,17.70
2018-05-08T01:53:30.370Z,16.00
2018-05-08T01:56:08.018Z,19.67
2018-05-08T01:58:36.648Z,16.30
2018-05-08T02:01:14.830Z,18.20
2018-05-08T02:04:06.354Z,18.93
2018-05-08T02:06:47.478Z,18.10
2018-05-08T02:09:15.038Z,17.67
2018-05-08T02:11:48.614Z,19.17
2018-05-08T02:14:20.858Z,18.77
2018-05-08T02:16:53.988Z,16.03
2018-05-08T02:19:23.391Z,16.23
2018-05-08T02:21:52.873Z,17.20
2018-05-08T02:24:21.064Z,14.30
2018-05-08T02:26:54.579Z,16.70
2018-05-08T02:29:23.962Z,15.70
2018-05-08T02:31:53.482Z,16.53
2018-05-08T02:34:45.544Z,21.07
2018-05-08T02:37:13.861Z,17.87
2018-05-08T02:39:44.754Z,19.43
2018-05-08T02:42:24.952Z,18.03
2018-05-08T02:44:54.712Z,25.40
2018-05-08T02:47:22.218Z,17.73
2018-05-08T02:49:50.844Z,15.50
2018-05-08T02:52:18.424Z,17.67
2018-05-08T02:54:58.611Z,22.37
2018-05-08T02:57:33.486Z,18.37
2018-05-08T03:00:05.290Z,15.53
2018-05-08T03:02:38.559Z,16.67
2018-05-08T03:05:06.099Z,17.13
2018-05-08T03:07:33.753Z,18.80
2018-05-08T03:10:01.275Z,18.67
2018-05-08T03:12:29.936Z,23.27
2018-05-08T03:14:57.692Z,16.60
2018-05-08T03:17:25.434Z,16.70
2018-05-08T03:19:52.984Z,16.97
2018-05-08T03:22:20.713Z,18.47
2018-05-08T03:24:49.345Z,17.43
2018-05-08T03:27:20.198Z,16.10
2018-05-08T03:29:48.884Z,17.13
2018-05-08T03:32:21.282Z,17.50
2018-05-08T03:35:03.370Z,15.97
2018-05-08T03:37:30.925Z,20.27
2018-05-08T03:42:53.181Z,19.17
2018-05-08T03:45:26.454Z,17.63
2018-05-08T03:47:58.544Z,16.97
2018-05-08T03:50:45.218Z,17.37
2018-05-08T03:53:17.721Z,20.30
2018-05-08T03:55:45.242Z,17.50
2018-05-08T03:58:16.637Z,15.80
2018-05-08T04:03:49.702Z,19.37
2018-05-08T04:09:38.028Z,19.63
2018-05-08T04:12:06.397Z,20.33
2018-05-08T04:14:35.076Z,17.10
2018-05-08T04:17:08.080Z,20.30
2018-05-08T04:19:58.597Z,19.57
2018-05-08T04:22:30.966Z,19.73
2018-05-08T04:25:07.578Z,19.73
2018-05-08T04:27:38.464Z,18.30
2018-05-08T04:30:09.292Z,18.73
2018-05-08T04:32:40.150Z,22.37
2018-05-08T04:35:07.658Z,21.93
2018-05-08T04:37:35.342Z,19.77
2018-05-08T04:40:02.855Z,19.37
2018-05-08T04:42:30.574Z,20.20
2018-05-08T04:45:02.074Z,18.03
2018-05-08T04:47:29.826Z,21.27
2018-05-08T04:50:11.956Z,23.80
2018-05-08T04:52:45.360Z,28.13
2018-05-08T04:55:14.905Z,24.30
2018-05-08T04:57:53.988Z,20.07
2018-05-08T05:00:32.538Z,21.10
2018-05-08T05:03:05.838Z,22.10
2018-05-08T05:05:34.546Z,29.63
2018-05-08T05:08:02.042Z,21.90
2018-05-08T05:10:35.888Z,19.33
2018-05-08T05:13:05.518Z,20.97
2018-05-08T05:15:34.808Z,21.63
2018-05-08T05:18:03.542Z,23.13
2018-05-08T05:20:32.192Z,25.60
2018-05-08T05:23:00.878Z,20.77
2018-05-08T05:25:32.046Z,20.03
2018-05-08T05:28:06.498Z,21.07
2018-05-08T05:30:51.141Z,25.87
2018-05-08T05:33:18.658Z,22.30
2018-05-08T05:35:46.203Z,21.20
2018-05-08T05:38:14.832Z,17.27
2018-05-08T05:41:00.417Z,23.03
2018-05-08T05:43:31.528Z,22.63
2018-05-08T05:46:03.287Z,20.33
2018-05-08T05:48:36.303Z,22.83
2018-05-08T05:51:05.583Z,17.33
2018-05-08T05:53:33.107Z,17.50
2018-05-08T05:56:11.829Z,18.90
2018-05-08T05:59:03.625Z,15.50
2018-05-08T06:01:31.145Z,19.27
2018-05-08T06:03:58.832Z,15.47
2018-05-08T06:06:30.048Z,19.17
2018-05-08T06:09:01.431Z,16.37
2018-05-08T06:11:30.726Z,14.13
2018-05-08T06:14:01.879Z,18.53
2018-05-08T06:16:30.592Z,14.30
2018-05-08T06:18:58.377Z,15.90
2018-05-08T06:21:26.082Z,19.53
2018-05-08T06:23:57.594Z,14.00
2018-05-08T06:26:25.290Z,14.43
2018-05-08T06:28:56.728Z,13.17
2018-05-08T06:31:41.955Z,14.60
2018-05-08T06:34:31.034Z,12.27
2018-05-08T06:37:22.750Z,13.00
2018-05-08T06:39:54.155Z,12.40
2018-05-08T06:42:23.764Z,13.23
2018-05-08T06:44:53.372Z,10.67
2018-05-08T06:47:25.770Z,12.87
2018-05-08T06:49:58.434Z,12.23
2018-05-08T06:55:18.846Z,14.47
2018-05-08T06:57:51.863Z,11.93
2018-05-08T07:00:30.003Z,13.13
2018-05-08T07:03:22.733Z,11.90
2018-05-08T07:05:57.293Z,13.40
2018-05-08T07:08:32.653Z,14.43
2018-05-08T07:11:06.250Z,11.60
2018-05-08T07:13:34.960Z,16.70
2018-05-08T07:16:09.907Z,9.97
2018-05-08T07:21:29.958Z,14.70
2018-05-08T07:23:57.663Z,12.80
2018-05-08T07:26:27.296Z,11.70
2018-05-08T07:29:08.182Z,13.13
2018-05-08T07:31:40.330Z,11.63
2018-05-08T07:34:12.062Z,13.13
2018-05-08T07:36:52.096Z,15.13
2018-05-08T07:39:21.730Z,14.90
2018-05-08T07:42:02.337Z,14.03
2018-05-08T07:44:41.504Z,13.17
2018-05-08T07:47:20.982Z,12.57
2018-05-08T07:52:46.635Z,9.67
2018-05-08T07:58:07.964Z,12.37
2018-05-08T08:00:36.618Z,14.00
2018-05-08T08:03:05.332Z,10.87
2018-05-08T08:05:39.815Z,13.53
2018-05-08T08:08:09.473Z,10.60
2018-05-08T08:10:50.682Z,9.33
2018-05-08T08:13:18.204Z,11.97
2018-05-08T08:15:46.900Z,12.57
2018-05-08T08:18:16.502Z,11.47
2018-05-08T08:20:48.866Z,9.33
2018-05-08T08:23:18.491Z,13.33
2018-05-08T08:25:50.254Z,12.83
2018-05-08T08:28:18.614Z,12.27
2018-05-08T08:30:47.332Z,12.13
2018-05-08T08:33:14.840Z,12.17
2018-05-08T08:35:52.375Z,11.80
2018-05-08T08:38:21.041Z,10.87
2018-05-08T08:40:53.193Z,10.63
2018-05-08T08:43:28.222Z,13.03
2018-05-08T08:46:00.326Z,8.57
2018-05-08T08:48:36.347Z,12.13
2018-05-08T08:51:05.159Z,8.17
2018-05-08T08:56:25.491Z,11.63
2018-05-08T08:58:53.242Z,8.23
2018-05-08T09:01:35.697Z,9.00
2018-05-08T09:04:03.280Z,8.00
2018-05-08T09:06:43.625Z,9.63
2018-05-08T09:09:11.339Z,11.50
2018-05-08T09:11:43.737Z,14.27
2018-05-08T09:14:23.195Z,5.93
2018-05-08T09:16:55.557Z,7.03
2018-05-08T09:19:26.992Z,9.33
2018-05-08T09:21:55.211Z,9.90
2018-05-08T09:24:22.817Z,6.53
2018-05-08T09:26:50.337Z,8.50
2018-05-08T09:29:18.653Z,9.10
2018-05-08T09:31:46.145Z,8.87
2018-05-08T09:34:14.511Z,8.23
2018-05-08T09:36:42.012Z,11.37
2018-05-08T09:39:14.027Z,10.17
2018-05-08T09:41:41.540Z,9.20
2018-05-08T09:44:09.250Z,6.90
2018-05-08T09:46:38.857Z,6.30
2018-05-08T09:49:08.485Z,7.40
2018-05-08T09:51:39.937Z,10.20
2018-05-08T09:54:07.482Z,9.43
2018-05-08T09:56:35.129Z,9.43
2018-05-08T09:59:07.541Z,5.80
2018-05-08T10:01:37.731Z,6.20
2018-05-08T10:04:08.573Z,11.47
2018-05-08T10:06:48.001Z,8.07
2018-05-08T10:09:22.818Z,5.43
2018-05-08T10:11:51.549Z,10.37
2018-05-08T10:14:23.670Z,7.77
2018-05-08T10:16:51.392Z,7.63
2018-05-08T10:19:24.673Z,7.03
2018-05-08T10:21:53.365Z,7.30
2018-05-08T10:24:35.477Z,5.80
2018-05-08T10:27:05.226Z,10.37
2018-05-08T10:29:39.029Z,7.07
2018-05-08T10:32:07.453Z,7.00
2018-05-08T10:34:42.546Z,8.53
2018-05-08T10:37:18.328Z,7.67
2018-05-08T10:39:47.019Z,7.97
2018-05-08T10:42:25.835Z,7.93
2018-05-08T10:44:54.567Z,9.57
2018-05-08T10:47:34.573Z,8.13
2018-05-08T10:50:13.407Z,11.17
2018-05-08T10:55:51.291Z,10.53
2018-05-08T10:58:31.948Z,12.17
2018-05-08T11:01:17.860Z,14.93
2018-05-08T11:03:47.499Z,5.47
2018-05-08T11:06:15.003Z,10.60
2018-05-08T11:08:48.609Z,6.20
2018-05-08T11:11:16.346Z,7.73
2018-05-08T11:13:45.123Z,9.13
2018-05-08T11:16:12.815Z,7.33
2018-05-08T11:18:45.196Z,5.10
2018-05-08T11:21:12.919Z,5.20
2018-05-08T11:23:41.623Z,5.53
2018-05-08T11:26:19.209Z,6.30
2018-05-08T11:28:58.925Z,7.97
2018-05-08T11:31:26.429Z,5.13
2018-05-08T11:33:56.947Z,5.50
2018-05-08T11:36:35.464Z,4.17
2018-05-08T11:39:05.972Z,4.00
2018-05-08T11:41:34.752Z,4.43
2018-05-08T11:44:06.782Z,4.93
2018-05-08T11:46:47.408Z,3.77
2018-05-08T11:49:18.590Z,5.37
2018-05-08T11:51:49.111Z,7.60
2018-05-08T11:54:21.787Z,4.23
2018-05-08T11:57:02.679Z,4.27
2018-05-08T11:59:30.231Z,3.20
2018-05-08T12:02:01.670Z,5.37
2018-05-08T12:04:29.195Z,6.17
2018-05-08T12:06:56.892Z,3.30
2018-05-08T12:09:26.488Z,5.27
2018-05-08T12:11:55.217Z,5.17
2018-05-08T12:14:23.861Z,7.80
2018-05-08T12:16:55.041Z,4.27
2018-05-08T12:19:22.583Z,4.70
2018-05-08T12:21:50.258Z,3.90
2018-05-08T12:24:19.845Z,6.73
2018-05-08T12:27:02.307Z,7.73
2018-05-08T12:29:35.651Z,4.83
2018-05-08T12:32:03.199Z,7.73
2018-05-08T12:34:30.899Z,4.13
2018-05-08T12:37:06.631Z,5.13
2018-05-08T12:39:40.835Z,7.33
2018-05-08T12:42:14.154Z,10.53
2018-05-08T12:44:41.681Z,4.93
2018-05-08T12:47:11.215Z,6.43
2018-05-08T12:49:44.227Z,6.70
2018-05-08T12:52:33.218Z,4.17
2018-05-08T12:55:12.567Z,7.40
2018-05-08T12:57:45.340Z,4.17
2018-05-08T13:00:13.118Z,4.50
2018-05-08T13:02:58.253Z,3.27
2018-05-08T13:05:29.480Z,3.67
2018-05-08T13:08:08.586Z,3.90
2018-05-08T13:10:36.103Z,3.90
2018-05-08T13:13:16.961Z,4.77
2018-05-08T13:15:57.045Z,5.93
2018-05-08T13:18:35.888Z,17.57
2018-05-08T13:21:03.416Z,5.73
2018-05-08T13:23:31.137Z,6.03
2018-05-08T13:26:11.169Z,3.30
2018-05-08T13:31:55.006Z,4.07
2018-05-08T13:34:27.327Z,5.27
2018-05-08T13:36:59.436Z,7.50
2018-05-08T13:39:43.680Z,4.23
2018-05-08T13:42:13.995Z,4.40
2018-05-08T13:44:42.659Z,9.43
2018-05-08T13:47:15.370Z,5.67
2018-05-08T13:49:56.235Z,6.13
2018-05-08T13:52:25.627Z,8.27
2018-05-08T13:55:13.106Z,5.00
2018-05-08T13:57:43.953Z,3.20
2018-05-08T14:00:11.635Z,4.30
2018-05-08T14:02:39.141Z,7.60
2018-05-08T14:05:07.804Z,4.93
2018-05-08T14:07:53.005Z,5.10
2018-05-08T14:10:20.561Z,5.77
2018-05-08T14:12:55.630Z,7.50
2018-05-08T14:15:26.914Z,3.83
2018-05-08T14:18:02.233Z,8.57
2018-05-08T14:20:36.156Z,5.73
2018-05-08T14:23:05.619Z,5.33
2018-05-08T14:25:37.872Z,5.17
2018-05-08T14:28:08.710Z,9.77
2018-05-08T14:30:46.887Z,6.20
2018-05-08T14:33:20.233Z,8.10
2018-05-08T14:35:47.941Z,4.63
2018-05-08T14:38:17.564Z,10.70
2018-05-08T14:40:45.095Z,5.20
2018-05-08T14:43:14.018Z,8.97
2018-05-08T14:45:47.945Z,10.77
2018-05-08T14:48:16.323Z,4.10
2018-05-08T14:50:52.682Z,9.97
2018-05-08T14:53:32.101Z,6.43
2018-05-08T14:56:09.984Z,6.17
2018-05-08T14:58:37.526Z,7.60
2018-05-08T15:01:13.223Z,6.43
2018-05-08T15:03:52.073Z,6.10
2018-05-08T15:06:30.568Z,5.97
2018-05-08T15:09:01.731Z,8.97
2018-05-08T15:11:31.041Z,9.93
2018-05-08T15:14:07.997Z,4.57
2018-05-08T15:16:35.510Z,6.07
2018-05-08T15:19:04.173Z,7.03
2018-05-08T15:21:31.785Z,4.67
2018-05-08T15:23:59.389Z,4.47
2018-05-08T15:26:31.152Z,6.27
2018-05-08T15:29:01.425Z,4.43
2018-05-08T15:31:31.034Z,7.93
2018-05-08T15:33:59.671Z,6.23
2018-05-08T15:36:29.273Z,6.17
2018-05-08T15:39:02.584Z,6.03
2018-05-08T15:41:30.358Z,4.07
2018-05-08T15:44:02.078Z,7.27
2018-05-08T15:46:32.624Z,3.60
2018-05-08T15:49:05.295Z,4.27
2018-05-08T15:51:39.846Z,3.40
2018-05-08T15:54:07.620Z,6.10
2018-05-08T15:56:36.068Z,6.67
2018-05-08T15:59:14.490Z,4.83
2018-05-08T16:01:46.530Z,5.43
2018-05-08T16:04:19.834Z,79.37
2018-05-08T16:06:54.678Z,10.23
2018-05-08T16:09:23.358Z,5.47
2018-05-08T16:11:58.184Z,9.63
2018-05-08T16:14:27.835Z,10.70
2018-05-08T16:16:55.563Z,7.97
2018-05-08T16:19:33.774Z,8.27
2018-05-08T16:22:01.333Z,7.93
2018-05-08T16:24:29.027Z,7.73
2018-05-08T16:26:57.719Z,9.57
2018-05-08T16:29:29.177Z,4.07
2018-05-08T16:32:00.927Z,8.90
2018-05-08T16:34:39.089Z,5.43
2018-05-08T16:37:10.304Z,4.93
2018-05-08T16:39:38.941Z,4.67
2018-05-08T16:42:27.340Z,7.40
2018-05-08T16:44:58.124Z,4.77
2018-05-08T16:47:30.813Z,3.87
2018-05-08T16:49:58.331Z,5.40
2018-05-08T16:52:26.953Z,3.63
2018-05-08T16:54:59.171Z,5.23
2018-05-08T16:57:33.505Z,4.87
2018-05-08T17:00:03.201Z,6.63
2018-05-08T17:02:31.848Z,9.87
2018-05-08T17:05:06.983Z,6.07
2018-05-08T17:07:55.101Z,5.97
2018-05-08T17:10:23.811Z,7.43
2018-05-08T17:12:57.314Z,4.40
2018-05-08T17:15:24.821Z,9.47
2018-05-08T17:17:53.532Z,5.17
2018-05-08T17:20:21.245Z,6.03
2018-05-08T17:22:49.913Z,7.10
2018-05-08T17:25:19.573Z,4.50
2018-05-08T17:27:49.119Z,4.27
2018-05-08T17:30:16.627Z,8.30
2018-05-08T17:32:47.755Z,5.70
2018-05-08T17:35:26.227Z,7.20
2018-05-08T17:37:57.103Z,9.33
2018-05-08T17:40:26.420Z,7.87
2018-05-08T17:42:53.919Z,11.20
2018-05-08T17:45:22.232Z,4.50
2018-05-08T17:47:59.499Z,10.07
2018-05-08T17:50:29.151Z,6.13
2018-05-08T17:53:05.143Z,9.20
2018-05-08T17:55:32.672Z,4.63
2018-05-08T17:58:04.100Z,6.27
2018-05-08T18:00:33.761Z,7.23
2018-05-08T18:03:04.540Z,5.00
2018-05-08T18:05:33.255Z,8.50
2018-05-08T18:08:01.934Z,5.67
2018-05-08T18:10:31.249Z,18.97
2018-05-08T18:12:58.988Z,7.77
2018-05-08T18:15:32.025Z,7.83
2018-05-08T18:18:00.675Z,8.93
2018-05-08T18:20:28.879Z,6.50
2018-05-08T18:22:57.686Z,9.07
2018-05-08T18:25:28.322Z,9.03
2018-05-08T18:28:07.358Z,8.73
2018-05-08T18:30:38.855Z,8.67
2018-05-08T18:33:10.623Z,5.80
2018-05-08T18:35:46.006Z,8.40
2018-05-08T18:38:13.604Z,11.93
2018-05-08T18:40:41.275Z,12.40
2018-05-08T18:43:13.046Z,13.47
2018-05-08T18:45:42.650Z,11.07
2018-05-08T18:48:12.897Z,11.27
2018-05-08T18:50:42.510Z,9.73
2018-05-08T18:53:21.614Z,18.27
2018-05-08T18:56:01.367Z,13.07
2018-05-08T18:58:29.954Z,12.43
2018-05-08T19:00:59.351Z,13.40
2018-05-08T19:03:30.265Z,8.17
2018-05-08T19:06:00.722Z,7.20
2018-05-08T19:08:30.972Z,9.23
2018-05-08T19:11:05.295Z,11.87
2018-05-08T19:13:36.923Z,12.43
2018-05-08T19:16:06.213Z,9.13
2018-05-08T19:18:39.331Z,11.23
2018-05-08T19:21:06.963Z,8.07
2018-05-08T19:23:35.715Z,10.07
2018-05-08T19:26:05.321Z,9.17
2018-05-08T19:28:40.568Z,15.73
2018-05-08T19:31:14.344Z,20.83
2018-05-08T19:33:42.077Z,22.97
2018-05-08T19:36:15.165Z,30.47
2018-05-08T19:38:52.635Z,32.47
2018-05-08T19:41:20.147Z,30.90
2018-05-08T19:43:49.890Z,48.90
2018-05-08T19:46:27.914Z,33.70
2018-05-08T19:48:55.442Z,29.23
2018-05-08T19:51:24.092Z,30.90
2018-05-08T19:53:55.900Z,32.33
2018-05-08T19:56:27.590Z,17.57
2018-05-08T19:58:56.321Z,26.63
2018-05-08T20:01:26.535Z,21.80
2018-05-08T20:03:54.057Z,23.57
2018-05-08T20:06:24.816Z,40.63
2018-05-08T20:08:58.443Z,50.20
2018-05-08T20:11:26.255Z,57.67
2018-05-08T20:13:53.963Z,48.77
2018-05-08T20:16:22.306Z,46.40
2018-05-08T20:18:51.036Z,24.07
2018-05-08T20:21:23.087Z,26.63
2018-05-08T20:23:50.592Z,18.67
2018-05-08T20:26:19.235Z,18.57
2018-05-08T20:28:51.631Z,23.43
2018-05-08T20:31:20.295Z,20.90
2018-05-08T20:33:56.345Z,16.97
2018-05-08T20:36:28.476Z,15.03
2018-05-08T20:39:09.647Z,16.27
2018-05-08T20:41:41.200Z,15.10
2018-05-08T20:44:08.939Z,14.33
2018-05-08T20:46:37.613Z,14.53
2018-05-08T20:49:12.457Z,12.27
2018-05-08T20:51:41.731Z,12.00
2018-05-08T20:54:09.230Z,13.67
2018-05-08T20:56:42.481Z,9.03
2018-05-08T20:59:11.205Z,14.37
2018-05-08T21:01:42.051Z,9.97
2018-05-08T21:04:22.075Z,11.73
2018-05-08T21:06:50.771Z,12.17
2018-05-08T21:09:23.144Z,9.50
2018-05-08T21:11:53.375Z,13.53
2018-05-08T21:14:20.879Z,11.90
2018-05-08T21:16:48.570Z,13.63
2018-05-08T21:19:19.753Z,11.93
2018-05-08T21:21:55.457Z,19.20
2018-05-08T21:24:25.244Z,11.07
2018-05-08T21:26:59.314Z,12.10
2018-05-08T21:29:34.303Z,11.37
2018-05-08T21:32:02.858Z,13.70
2018-05-08T21:34:30.585Z,16.00
2018-05-08T21:37:02.341Z,10.87
2018-05-08T21:39:31.051Z,21.97
2018-05-08T21:41:59.419Z,15.83
2018-05-08T21:44:32.112Z,20.97
2018-05-08T21:47:00.784Z,22.97
2018-05-08T21:49:29.546Z,26.70
2018-05-08T21:52:02.885Z,35.27
2018-05-08T21:54:35.786Z,28.73
2018-05-08T21:57:06.592Z,35.63
2018-05-08T21:59:40.252Z,26.57
2018-05-08T22:02:18.976Z,25.83
2018-05-08T22:04:47.732Z,25.30
2018-05-08T22:07:20.978Z,26.23
2018-05-08T22:09:54.897Z,35.40
2018-05-08T22:12:22.410Z,25.60
2018-05-08T22:14:51.047Z,27.70
2018-05-08T22:17:35.055Z,28.23
2018-05-08T22:20:16.054Z,29.07
2018-05-08T22:22:49.381Z,28.73
2018-05-08T22:25:18.657Z,26.53
2018-05-08T22:27:54.415Z,35.90
2018-05-08T22:30:26.481Z,31.27
2018-05-08T22:32:58.575Z,26.43
2018-05-08T22:38:27.843Z,24.70
2018-05-08T22:40:55.374Z,34.27
2018-05-08T22:43:29.525Z,26.93
2018-05-08T22:46:03.501Z,27.33
2018-05-08T22:48:33.109Z,29.10
2018-05-08T22:51:02.681Z,27.33
2018-05-08T22:53:31.407Z,35.60
2018-05-08T22:56:00.074Z,27.50
2018-05-08T23:01:39.269Z,33.23
2018-05-08T23:04:19.007Z,26.97
2018-05-08T23:07:05.824Z,25.97
2018-05-08T23:09:44.294Z,27.53
2018-05-08T23:12:25.823Z,26.47
2018-05-08T23:15:05.003Z,24.57
2018-05-08T23:17:32.499Z,24.13
2018-05-08T23:20:01.149Z,19.47
2018-05-08T23:22:28.670Z,23.73
2018-05-08T23:24:56.376Z,25.77
2018-05-08T23:27:23.889Z,19.60
2018-05-08T23:29:53.465Z,25.33
2018-05-08T23:32:24.290Z,24.37
2018-05-08T23:35:04.600Z,28.27
2018-05-08T23:37:39.757Z,26.73
2018-05-08T23:40:08.506Z,24.70
2018-05-08T23:42:36.238Z,20.40
2018-05-08T23:45:05.089Z,23.47
2018-05-08T23:47:43.482Z,26.80
2018-05-08T23:50:14.581Z,23.90
2018-05-08T23:52:43.299Z,27.00
2018-05-08T23:55:11.989Z,29.87
2018-05-08T23:57:46.765Z,22.27
